createdAt,value
2019-03-20T00:00:19.320Z,89.10
2019-03-20T00:01:19.654Z,88.95
2019-03-20T00:02:19.947Z,88.57
2019-03-20T00:03:20.355Z,88.53
2019-03-20T00:04:20.588Z,88.85
2019-03-20T00:05:20.920Z,88.53
2019-03-20T00:06:21.255Z,88.53
2019-03-20T00:07:21.517Z,88.22
2019-03-20T00:08:21.879Z,88.01
2019-03-20T00:09:22.165Z,87.49
2019-03-20T00:10:22.479Z,87.60
2019-03-20T00:11:22.813Z,87.74
2019-03-20T00:12:23.086Z,87.84
2019-03-20T00:13:23.429Z,88.37
2019-03-20T00:14:23.790Z,88.26
2019-03-20T00:15:24.086Z,88.47
2019-03-20T00:16:24.394Z,89.51
2019-03-20T00:17:24.687Z,90.14
2019-03-20T00:18:25.008Z,91.12
2019-03-20T00:19:25.317Z,91.22
2019-03-20T00:20:25.648Z,91.60
2019-03-20T00:21:25.965Z,91.54
2019-03-20T00:22:26.293Z,91.08
2019-03-20T00:23:26.696Z,91.39
2019-03-20T00:24:26.903Z,91.33
2019-03-20T00:25:27.218Z,91.12
2019-03-20T00:26:27.548Z,91.50
2019-03-20T00:27:27.846Z,91.64
2019-03-20T00:28:28.193Z,91.22
2019-03-20T00:29:28.461Z,90.85
2019-03-20T00:30:28.789Z,90.50
2019-03-20T00:31:29.226Z,91.06
2019-03-20T00:32:29.412Z,90.75
2019-03-20T00:33:29.762Z,91.37
2019-03-20T00:34:30.031Z,91.69
2019-03-20T00:35:30.363Z,91.94
2019-03-20T00:36:30.692Z,92.31
2019-03-20T00:37:31.032Z,92.52
2019-03-20T00:38:31.339Z,93.25
2019-03-20T00:39:31.653Z,94.61
2019-03-20T00:40:31.904Z,94.09
2019-03-20T00:41:32.251Z,94.25
2019-03-20T00:42:32.547Z,93.73
2019-03-20T00:43:32.884Z,93.63
2019-03-20T00:44:33.178Z,93.48
2019-03-20T00:45:33.475Z,93.10
2019-03-20T00:46:33.823Z,93.31
2019-03-20T00:47:34.221Z,92.90
2019-03-20T00:48:34.692Z,92.47
2019-03-20T00:49:34.768Z,92.47
2019-03-20T00:50:35.082Z,92.27
2019-03-20T00:51:35.394Z,92.16
2019-03-20T00:52:35.695Z,92.21
2019-03-20T00:53:36.052Z,92.10
2019-03-20T00:54:36.365Z,92.31
2019-03-20T00:55:36.710Z,92.21
2019-03-20T00:56:37.024Z,92.21
2019-03-20T00:57:37.289Z,92.31
2019-03-20T00:58:39.583Z,92.00
2019-03-20T00:59:37.949Z,92.00
2019-03-20T01:00:38.251Z,91.79
2019-03-20T01:01:38.580Z,91.94
2019-03-20T01:02:38.876Z,91.89
2019-03-20T01:03:39.194Z,91.69
2019-03-20T01:04:39.658Z,91.94
2019-03-20T01:05:39.820Z,92.14
2019-03-20T01:06:40.152Z,92.25
2019-03-20T01:07:40.435Z,92.40
2019-03-20T01:08:40.760Z,92.40
2019-03-20T01:09:41.105Z,92.88
2019-03-20T01:10:41.401Z,92.60
2019-03-20T01:11:41.736Z,92.60
2019-03-20T01:12:42.147Z,92.19
2019-03-20T01:13:42.339Z,92.75
2019-03-20T01:14:42.695Z,93.13
2019-03-20T01:15:42.983Z,93.48
2019-03-20T01:16:43.314Z,93.27
2019-03-20T01:17:43.619Z,94.59
2019-03-20T01:18:43.909Z,94.38
2019-03-20T01:19:44.252Z,94.17
2019-03-20T01:20:44.601Z,94.53
2019-03-20T01:21:44.872Z,94.21
2019-03-20T01:22:45.175Z,94.32
2019-03-20T01:23:45.544Z,94.64
2019-03-20T01:24:45.827Z,94.74
2019-03-20T01:25:46.108Z,94.90
2019-03-20T01:26:46.448Z,95.11
2019-03-20T01:27:46.749Z,94.59
2019-03-20T01:28:47.095Z,94.23
2019-03-20T01:29:47.381Z,94.17
2019-03-20T01:30:47.662Z,94.34
2019-03-20T01:31:48.016Z,93.08
2019-03-20T01:32:48.316Z,93.29
2019-03-20T01:33:48.638Z,93.19
2019-03-20T01:34:48.989Z,93.02
2019-03-20T01:35:49.268Z,93.19
2019-03-20T01:36:49.614Z,93.54
2019-03-20T01:37:49.971Z,92.82
2019-03-20T01:38:50.238Z,92.40
2019-03-20T01:39:50.540Z,93.86
2019-03-20T01:40:50.844Z,93.33
2019-03-20T01:41:51.160Z,93.27
2019-03-20T01:42:51.471Z,93.48
2019-03-20T01:43:51.838Z,93.96
2019-03-20T01:44:52.135Z,94.49
2019-03-20T01:45:52.549Z,94.49
2019-03-20T01:46:52.727Z,94.17
2019-03-20T01:47:53.054Z,94.17
2019-03-20T01:48:53.373Z,94.17
2019-03-20T01:49:53.715Z,93.96
2019-03-20T01:50:54.003Z,94.27
2019-03-20T01:51:54.310Z,94.32
2019-03-20T01:52:54.618Z,94.38
2019-03-20T01:53:55.067Z,94.27
2019-03-20T01:54:55.271Z,94.21
2019-03-20T01:55:55.566Z,93.90
2019-03-20T01:56:55.877Z,94.11
2019-03-20T01:57:56.190Z,94.53
2019-03-20T01:58:56.506Z,94.01
2019-03-20T01:59:56.869Z,94.36
2019-03-20T02:00:57.155Z,94.15
2019-03-20T02:01:57.501Z,94.36
2019-03-20T02:02:57.783Z,94.78
2019-03-20T02:03:58.069Z,94.68
2019-03-20T02:04:58.425Z,94.68
2019-03-20T02:05:58.728Z,94.78
2019-03-20T02:06:59.039Z,94.78
2019-03-20T02:07:59.370Z,94.21
2019-03-20T02:08:59.673Z,94.26
2019-03-20T02:10:00.030Z,94.21
2019-03-20T02:11:00.346Z,93.84
2019-03-20T02:12:00.622Z,94.26
2019-03-20T02:13:00.948Z,94.26
2019-03-20T02:14:01.254Z,93.27
2019-03-20T02:15:01.594Z,93.63
2019-03-20T02:16:01.870Z,93.32
2019-03-20T02:17:02.192Z,93.32
2019-03-20T02:18:02.546Z,93.42
2019-03-20T02:19:02.916Z,93.27
2019-03-20T02:20:03.151Z,93.42
2019-03-20T02:21:03.435Z,93.27
2019-03-20T02:22:03.765Z,93.63
2019-03-20T02:23:04.097Z,93.17
2019-03-20T02:24:04.396Z,93.52
2019-03-20T02:25:04.736Z,93.52
2019-03-20T02:26:05.007Z,93.11
2019-03-20T02:27:05.455Z,93.32
2019-03-20T02:28:05.931Z,93.84
2019-03-20T02:29:05.994Z,94.57
2019-03-20T02:30:06.336Z,94.15
2019-03-20T02:31:06.628Z,94.46
2019-03-20T02:32:06.924Z,94.26
2019-03-20T02:33:07.270Z,94.26
2019-03-20T02:34:07.569Z,94.51
2019-03-20T02:35:07.984Z,94.51
2019-03-20T02:36:08.177Z,94.62
2019-03-20T02:37:08.499Z,94.62
2019-03-20T02:38:08.827Z,94.09
2019-03-20T02:39:09.146Z,94.30
2019-03-20T02:40:09.750Z,94.56
2019-03-20T02:41:09.779Z,94.76
2019-03-20T02:42:10.090Z,94.87
2019-03-20T02:43:10.441Z,94.82
2019-03-20T02:44:10.698Z,94.87
2019-03-20T02:45:11.060Z,95.29
2019-03-20T02:46:11.332Z,95.07
2019-03-20T02:47:11.655Z,95.50
2019-03-20T02:48:11.986Z,95.29
2019-03-20T02:49:12.278Z,95.18
2019-03-20T02:50:12.652Z,95.18
2019-03-20T02:51:12.957Z,96.44
2019-03-20T02:52:13.322Z,96.12
2019-03-20T02:53:13.562Z,96.23
2019-03-20T02:54:13.842Z,95.92
2019-03-20T02:55:14.181Z,96.33
2019-03-20T02:56:14.486Z,96.02
2019-03-20T02:57:17.241Z,96.12
2019-03-20T02:58:15.134Z,96.12
2019-03-20T02:59:15.442Z,96.02
2019-03-20T03:00:15.841Z,96.02
2019-03-20T03:01:16.073Z,96.33
2019-03-20T03:02:16.387Z,96.12
2019-03-20T03:03:16.715Z,96.12
2019-03-20T03:04:17.010Z,96.23
2019-03-20T03:05:17.321Z,96.33
2019-03-20T03:06:17.661Z,95.92
2019-03-20T03:07:17.967Z,96.02
2019-03-20T03:08:18.415Z,96.33
2019-03-20T03:09:18.582Z,96.12
2019-03-20T03:10:18.915Z,96.23
2019-03-20T03:11:19.221Z,95.56
2019-03-20T03:12:19.603Z,95.50
2019-03-20T03:13:19.852Z,95.29
2019-03-20T03:14:20.150Z,94.76
2019-03-20T03:15:20.472Z,95.07
2019-03-20T03:16:20.809Z,95.07
2019-03-20T03:17:21.083Z,94.87
2019-03-20T03:18:21.433Z,95.39
2019-03-20T03:19:21.711Z,94.87
2019-03-20T03:20:22.036Z,95.18
2019-03-20T03:21:22.356Z,94.87
2019-03-20T03:22:22.636Z,94.97
2019-03-20T03:23:22.984Z,94.76
2019-03-20T03:24:23.364Z,95.18
2019-03-20T03:25:23.609Z,95.29
2019-03-20T03:26:23.935Z,95.18
2019-03-20T03:27:24.217Z,95.18
2019-03-20T03:28:24.547Z,95.29
2019-03-20T03:29:24.864Z,95.39
2019-03-20T03:30:25.216Z,95.81
2019-03-20T03:31:25.560Z,95.29
2019-03-20T03:32:25.824Z,95.60
2019-03-20T03:33:26.467Z,95.18
2019-03-20T03:34:26.433Z,96.33
2019-03-20T03:35:26.781Z,96.33
2019-03-20T03:36:27.079Z,96.12
2019-03-20T03:37:27.396Z,96.23
2019-03-20T03:38:27.710Z,96.02
2019-03-20T03:39:27.988Z,96.33
2019-03-20T03:40:28.351Z,96.23
2019-03-20T03:41:28.751Z,96.55
2019-03-20T03:42:28.940Z,96.33
2019-03-20T03:43:29.254Z,95.50
2019-03-20T03:44:29.581Z,95.39
2019-03-20T03:45:29.921Z,95.18
2019-03-20T03:46:30.251Z,95.50
2019-03-20T03:47:30.546Z,95.39
2019-03-20T03:48:30.876Z,95.54
2019-03-20T03:49:31.264Z,95.33
2019-03-20T03:50:31.677Z,95.58
2019-03-20T03:51:31.815Z,96.48
2019-03-20T03:52:32.109Z,96.27
2019-03-20T03:53:32.459Z,96.27
2019-03-20T03:54:32.732Z,96.21
2019-03-20T03:55:33.068Z,96.17
2019-03-20T03:56:33.378Z,96.48
2019-03-20T03:57:33.730Z,96.11
2019-03-20T03:58:33.982Z,96.37
2019-03-20T03:59:34.296Z,96.53
2019-03-20T04:00:34.619Z,96.42
2019-03-20T04:01:34.919Z,96.53
2019-03-20T04:02:35.236Z,96.84
2019-03-20T04:03:35.553Z,96.94
2019-03-20T04:04:35.889Z,97.16
2019-03-20T04:05:36.244Z,96.94
2019-03-20T04:06:36.832Z,96.94
2019-03-20T04:07:36.862Z,96.94
2019-03-20T04:08:37.184Z,97.05
2019-03-20T04:09:37.574Z,96.63
2019-03-20T04:10:37.851Z,96.94
2019-03-20T04:11:38.192Z,97.05
2019-03-20T04:12:38.467Z,96.84
2019-03-20T04:13:38.781Z,96.84
2019-03-20T04:14:39.316Z,97.05
2019-03-20T04:15:39.441Z,97.09
2019-03-20T04:16:39.766Z,97.26
2019-03-20T04:17:40.023Z,96.99
2019-03-20T04:18:40.367Z,97.05
2019-03-20T04:19:40.696Z,97.26
2019-03-20T04:20:40.993Z,97.05
2019-03-20T04:21:41.335Z,97.26
2019-03-20T04:22:41.713Z,97.58
2019-03-20T04:23:41.952Z,98.10
2019-03-20T04:24:42.277Z,97.99
2019-03-20T04:25:42.575Z,97.99
2019-03-20T04:26:42.920Z,98.04
2019-03-20T04:27:43.209Z,97.36
2019-03-20T04:28:43.499Z,97.16
2019-03-20T04:29:43.840Z,97.68
2019-03-20T04:30:44.203Z,97.72
2019-03-20T04:31:44.496Z,97.52
2019-03-20T04:32:44.774Z,97.62
2019-03-20T04:33:45.089Z,97.41
2019-03-20T04:34:45.411Z,97.41
2019-03-20T04:35:45.719Z,97.62
2019-03-20T04:36:48.120Z,97.72
2019-03-20T04:37:46.352Z,97.72
2019-03-20T04:38:46.702Z,97.62
2019-03-20T04:39:46.973Z,97.72
2019-03-20T04:40:47.261Z,98.14
2019-03-20T04:41:47.631Z,97.99
2019-03-20T04:42:47.910Z,98.14
2019-03-20T04:43:48.234Z,97.93
2019-03-20T04:44:48.565Z,98.25
2019-03-20T04:45:48.858Z,98.14
2019-03-20T04:46:49.256Z,97.62
2019-03-20T04:47:49.551Z,97.41
2019-03-20T04:48:49.801Z,97.09
2019-03-20T04:49:50.133Z,96.99
2019-03-20T04:50:50.429Z,97.09
2019-03-20T04:51:50.756Z,97.09
2019-03-20T04:52:51.060Z,97.09
2019-03-20T04:53:51.389Z,96.89
2019-03-20T04:54:51.730Z,97.52
2019-03-20T04:55:52.180Z,97.62
2019-03-20T04:56:52.357Z,97.41
2019-03-20T04:57:52.644Z,97.52
2019-03-20T04:58:52.957Z,97.62
2019-03-20T04:59:53.298Z,97.52
2019-03-20T05:00:53.592Z,97.52
2019-03-20T05:01:53.949Z,97.41
2019-03-20T05:02:54.214Z,97.77
2019-03-20T05:03:54.663Z,98.29
2019-03-20T05:04:54.874Z,97.62
2019-03-20T05:05:55.179Z,97.62
2019-03-20T05:06:58.926Z,97.52
2019-03-20T05:07:55.793Z,98.04
2019-03-20T05:08:56.110Z,98.14
2019-03-20T05:09:56.454Z,97.83
2019-03-20T05:10:56.755Z,98.14
2019-03-20T05:11:57.128Z,98.14
2019-03-20T05:12:57.381Z,97.93
2019-03-20T05:13:57.687Z,98.14
2019-03-20T05:14:58.043Z,97.99
2019-03-20T05:15:58.362Z,97.99
2019-03-20T05:16:58.695Z,97.89
2019-03-20T05:17:58.993Z,97.99
2019-03-20T05:18:59.354Z,98.10
2019-03-20T05:19:59.646Z,98.21
2019-03-20T05:20:59.935Z,98.10
2019-03-20T05:22:00.266Z,97.89
2019-03-20T05:23:00.579Z,98.10
2019-03-20T05:24:00.867Z,97.68
2019-03-20T05:25:01.215Z,97.36
2019-03-20T05:26:01.485Z,97.26
2019-03-20T05:27:01.843Z,96.94
2019-03-20T05:28:02.159Z,96.94
2019-03-20T05:29:02.550Z,96.94
2019-03-20T05:30:02.774Z,96.73
2019-03-20T05:31:03.052Z,97.05
2019-03-20T05:32:03.414Z,96.94
2019-03-20T05:33:03.781Z,96.48
2019-03-20T05:34:04.013Z,96.90
2019-03-20T05:35:04.347Z,96.63
2019-03-20T05:36:04.636Z,96.84
2019-03-20T05:37:10.286Z,96.59
2019-03-20T05:38:06.287Z,96.48
2019-03-20T05:39:05.607Z,96.37
2019-03-20T05:40:05.926Z,96.17
2019-03-20T05:41:06.201Z,96.17
2019-03-20T05:42:06.554Z,96.69
2019-03-20T05:43:07.092Z,96.27
2019-03-20T05:44:07.172Z,96.27
2019-03-20T05:45:07.553Z,96.27
2019-03-20T05:46:07.793Z,95.86
2019-03-20T05:47:08.112Z,96.06
2019-03-20T05:48:08.437Z,96.06
2019-03-20T05:49:08.750Z,96.37
2019-03-20T05:50:09.084Z,95.92
2019-03-20T05:51:09.378Z,96.48
2019-03-20T05:52:09.762Z,96.02
2019-03-20T05:53:10.089Z,96.33
2019-03-20T05:54:10.304Z,96.44
2019-03-20T05:55:10.710Z,96.65
2019-03-20T05:56:10.955Z,96.44
2019-03-20T05:57:12.527Z,96.55
2019-03-20T05:58:11.598Z,96.44
2019-03-20T05:59:11.884Z,96.55
2019-03-20T06:00:12.217Z,96.86
2019-03-20T06:01:12.555Z,97.06
2019-03-20T06:02:12.929Z,96.81
2019-03-20T06:03:13.178Z,97.13
2019-03-20T06:04:13.456Z,96.81
2019-03-20T06:05:13.790Z,96.81
2019-03-20T06:06:14.105Z,96.92
2019-03-20T06:07:21.179Z,96.88
2019-03-20T06:08:15.762Z,96.14
2019-03-20T06:09:15.059Z,96.35
2019-03-20T06:10:15.678Z,96.35
2019-03-20T06:11:15.659Z,96.35
2019-03-20T06:12:15.975Z,96.31
2019-03-20T06:13:16.336Z,96.14
2019-03-20T06:14:16.598Z,95.57
2019-03-20T06:15:16.919Z,95.68
2019-03-20T06:16:17.212Z,96.20
2019-03-20T06:17:17.559Z,95.89
2019-03-20T06:18:17.987Z,95.84
2019-03-20T06:19:18.168Z,95.84
2019-03-20T06:20:18.470Z,95.53
2019-03-20T06:21:18.782Z,96.05
2019-03-20T06:22:19.123Z,95.01
2019-03-20T06:23:19.443Z,95.21
2019-03-20T06:24:19.749Z,95.32
2019-03-20T06:25:21.322Z,94.90
2019-03-20T06:26:20.396Z,94.90
2019-03-20T06:27:20.703Z,94.86
2019-03-20T06:28:21.056Z,94.86
2019-03-20T06:29:21.334Z,95.70
2019-03-20T06:30:21.643Z,95.49
2019-03-20T06:31:21.975Z,94.71
2019-03-20T06:32:22.272Z,94.40
2019-03-20T06:33:22.621Z,94.71
2019-03-20T06:34:22.951Z,94.82
2019-03-20T06:35:23.208Z,94.71
2019-03-20T06:36:23.554Z,94.35
2019-03-20T06:37:32.248Z,94.46
2019-03-20T06:38:25.184Z,94.25
2019-03-20T06:39:24.481Z,94.35
2019-03-20T06:40:24.813Z,94.04
2019-03-20T06:41:25.225Z,94.04
2019-03-20T06:42:25.471Z,93.90
2019-03-20T06:43:25.843Z,93.16
2019-03-20T06:44:26.065Z,93.06
2019-03-20T06:45:26.396Z,92.75
2019-03-20T06:46:26.711Z,92.08
2019-03-20T06:47:26.997Z,93.02
2019-03-20T06:48:27.362Z,91.97
2019-03-20T06:49:27.615Z,92.40
2019-03-20T06:50:27.957Z,92.14
2019-03-20T06:51:28.418Z,91.83
2019-03-20T06:52:28.585Z,91.41
2019-03-20T06:53:28.927Z,91.10
2019-03-20T06:54:29.187Z,91.10
2019-03-20T06:55:29.528Z,90.85
2019-03-20T06:56:29.875Z,90.44
2019-03-20T06:57:30.174Z,90.12
2019-03-20T06:58:30.538Z,90.01
2019-03-20T06:59:30.869Z,89.91
2019-03-20T07:00:31.097Z,89.91
2019-03-20T07:01:31.450Z,89.14
2019-03-20T07:02:31.746Z,89.35
2019-03-20T07:03:32.102Z,88.73
2019-03-20T07:04:32.367Z,88.20
2019-03-20T07:05:32.675Z,87.68
2019-03-20T07:06:33.021Z,87.54
2019-03-20T07:07:43.217Z,87.23
2019-03-20T07:08:34.660Z,86.71
2019-03-20T07:09:33.950Z,86.60
2019-03-20T07:10:34.268Z,86.98
2019-03-20T07:11:34.572Z,86.67
2019-03-20T07:12:34.890Z,86.35
2019-03-20T07:13:35.500Z,85.49
2019-03-20T07:14:35.529Z,85.63
2019-03-20T07:15:35.890Z,85.28
2019-03-20T07:16:36.199Z,84.75
2019-03-20T07:17:36.493Z,84.65
2019-03-20T07:18:36.853Z,84.44
2019-03-20T07:19:37.123Z,84.61
2019-03-20T07:20:37.672Z,83.58
2019-03-20T07:21:37.766Z,83.89
2019-03-20T07:22:38.057Z,83.58
2019-03-20T07:23:38.409Z,83.58
2019-03-20T07:24:38.807Z,82.39
2019-03-20T07:25:39.013Z,82.60
2019-03-20T07:26:39.349Z,83.12
2019-03-20T07:27:39.632Z,82.39
2019-03-20T07:28:39.970Z,81.67
2019-03-20T07:29:40.286Z,82.25
2019-03-20T07:30:40.596Z,82.35
2019-03-20T07:31:40.926Z,81.90
2019-03-20T07:32:41.331Z,81.49
2019-03-20T07:33:41.573Z,81.38
2019-03-20T07:34:41.873Z,81.18
2019-03-20T07:35:42.189Z,80.45
2019-03-20T07:36:42.518Z,80.66
2019-03-20T07:37:42.815Z,80.31
2019-03-20T07:38:43.147Z,80.31
2019-03-20T07:39:43.442Z,80.00
2019-03-20T07:40:43.800Z,80.52
2019-03-20T07:41:44.072Z,79.55
2019-03-20T07:42:44.373Z,79.75
2019-03-20T07:43:44.734Z,78.41
2019-03-20T07:44:45.160Z,78.89
2019-03-20T07:45:45.318Z,77.85
2019-03-20T07:46:45.669Z,77.23
2019-03-20T07:47:46.022Z,77.33
2019-03-20T07:48:46.329Z,77.54
2019-03-20T07:49:46.582Z,78.58
2019-03-20T07:50:46.881Z,78.44
2019-03-20T07:51:47.226Z,77.40
2019-03-20T07:52:47.529Z,78.02
2019-03-20T07:53:47.857Z,76.43
2019-03-20T07:54:48.178Z,74.77
2019-03-20T07:55:48.468Z,75.02
2019-03-20T07:56:48.805Z,74.77
2019-03-20T07:57:49.170Z,72.91
2019-03-20T07:58:49.448Z,73.91
2019-03-20T07:59:49.743Z,73.39
2019-03-20T08:00:50.040Z,72.77
2019-03-20T08:01:50.357Z,72.94
2019-03-20T08:02:50.668Z,72.43
2019-03-20T08:03:51.018Z,72.94
2019-03-20T08:04:51.342Z,72.94
2019-03-20T08:05:51.728Z,72.29
2019-03-20T08:06:51.952Z,70.84
2019-03-20T08:07:52.262Z,70.43
2019-03-20T08:08:52.580Z,71.02
2019-03-20T08:09:52.922Z,69.98
2019-03-20T08:10:53.209Z,70.09
2019-03-20T08:11:53.542Z,70.19
2019-03-20T08:12:53.819Z,72.33
2019-03-20T08:13:54.261Z,71.71
2019-03-20T08:14:54.467Z,69.43
2019-03-20T08:15:54.768Z,68.88
2019-03-20T08:16:55.102Z,71.95
2019-03-20T08:17:55.379Z,70.85
2019-03-20T08:18:55.714Z,69.78
2019-03-20T08:19:56.064Z,69.78
2019-03-20T08:20:56.354Z,69.54
2019-03-20T08:21:56.716Z,67.69
2019-03-20T08:22:56.966Z,67.10
2019-03-20T08:23:57.272Z,68.72
2019-03-20T08:24:57.631Z,67.79
2019-03-20T08:25:57.914Z,68.82
2019-03-20T08:26:58.246Z,68.69
2019-03-20T08:27:58.539Z,67.45
2019-03-20T08:28:58.853Z,65.59
2019-03-20T08:29:59.215Z,64.87
2019-03-20T08:30:59.503Z,64.84
2019-03-20T08:31:59.794Z,63.60
2019-03-20T08:33:00.117Z,63.60
2019-03-20T08:34:00.434Z,63.29
2019-03-20T08:35:00.777Z,65.05
2019-03-20T08:36:01.049Z,62.96
2019-03-20T08:37:02.338Z,63.17
2019-03-20T08:38:01.757Z,63.06
2019-03-20T08:39:02.111Z,62.54
2019-03-20T08:40:02.362Z,63.13
2019-03-20T08:41:02.633Z,63.03
2019-03-20T08:42:02.964Z,61.69
2019-03-20T08:43:03.296Z,61.38
2019-03-20T08:44:03.592Z,61.15
2019-03-20T08:45:03.936Z,61.25
2019-03-20T08:46:04.221Z,61.56
2019-03-20T08:47:04.627Z,61.56
2019-03-20T08:48:04.859Z,61.43
2019-03-20T08:49:05.207Z,61.63
2019-03-20T08:50:05.508Z,60.61
2019-03-20T08:51:05.770Z,60.19
2019-03-20T08:52:06.097Z,59.55
2019-03-20T08:53:06.440Z,59.75
2019-03-20T08:54:06.733Z,59.75
2019-03-20T08:55:07.124Z,59.55
2019-03-20T08:56:07.351Z,58.42
2019-03-20T08:57:07.659Z,58.39
2019-03-20T08:58:07.999Z,58.59
2019-03-20T08:59:08.298Z,58.18
2019-03-20T09:00:08.876Z,58.91
2019-03-20T09:01:08.923Z,58.18
2019-03-20T09:02:09.241Z,59.01
2019-03-20T09:03:09.608Z,58.39
2019-03-20T09:04:09.851Z,58.67
2019-03-20T09:05:10.199Z,58.26
2019-03-20T09:06:10.481Z,58.06
2019-03-20T09:07:10.796Z,58.36
2019-03-20T09:08:11.137Z,57.95
2019-03-20T09:09:11.416Z,57.13
2019-03-20T09:10:11.781Z,57.34
2019-03-20T09:11:12.127Z,57.75
2019-03-20T09:12:12.434Z,57.34
2019-03-20T09:13:12.730Z,56.59
2019-03-20T09:14:13.005Z,58.16
2019-03-20T09:15:13.365Z,57.03
2019-03-20T09:16:13.668Z,57.21
2019-03-20T09:17:13.978Z,56.59
2019-03-20T09:18:14.311Z,56.70
2019-03-20T09:19:14.616Z,56.28
2019-03-20T09:20:15.026Z,56.59
2019-03-20T09:21:15.232Z,56.70
2019-03-20T09:22:15.549Z,56.05
2019-03-20T09:23:15.882Z,54.82
2019-03-20T09:24:16.177Z,55.23
2019-03-20T09:25:16.509Z,54.51
2019-03-20T09:26:16.802Z,54.72
2019-03-20T09:27:17.139Z,54.92
2019-03-20T09:28:17.576Z,54.61
2019-03-20T09:29:18.841Z,54.82
2019-03-20T09:30:18.083Z,55.00
2019-03-20T09:31:18.391Z,55.00
2019-03-20T09:32:18.715Z,55.30
2019-03-20T09:33:19.035Z,54.59
2019-03-20T09:34:19.335Z,54.38
2019-03-20T09:35:19.681Z,54.59
2019-03-20T09:36:19.995Z,54.59
2019-03-20T09:37:20.257Z,55.10
2019-03-20T09:38:20.605Z,54.15
2019-03-20T09:39:20.895Z,54.66
2019-03-20T09:40:23.358Z,54.66
2019-03-20T09:41:21.558Z,54.57
2019-03-20T09:42:21.839Z,53.74
2019-03-20T09:43:22.186Z,54.46
2019-03-20T09:44:22.553Z,53.61
2019-03-20T09:45:22.786Z,53.41
2019-03-20T09:46:23.139Z,54.02
2019-03-20T09:47:24.199Z,52.39
2019-03-20T09:48:23.753Z,52.67
2019-03-20T09:49:24.070Z,52.87
2019-03-20T09:50:24.382Z,52.36
2019-03-20T09:51:24.721Z,53.18
2019-03-20T09:52:25.023Z,52.97
2019-03-20T09:53:25.396Z,52.95
2019-03-20T09:54:25.637Z,51.64
2019-03-20T09:55:25.950Z,52.03
2019-03-20T09:56:26.291Z,50.49
2019-03-20T09:57:26.581Z,51.21
2019-03-20T09:58:26.916Z,51.62
2019-03-20T09:59:27.191Z,52.21
2019-03-20T10:00:27.536Z,51.90
2019-03-20T10:01:27.984Z,51.29
2019-03-20T10:02:28.148Z,51.78
2019-03-20T10:03:28.463Z,50.85
2019-03-20T10:04:28.762Z,50.34
2019-03-20T10:05:29.094Z,49.93
2019-03-20T10:06:30.243Z,50.42
2019-03-20T10:07:29.728Z,50.42
2019-03-20T10:08:30.052Z,49.60
2019-03-20T10:09:30.448Z,50.42
2019-03-20T10:10:30.663Z,49.71
2019-03-20T10:11:30.999Z,49.19
2019-03-20T10:12:31.287Z,49.73
2019-03-20T10:13:31.620Z,50.22
2019-03-20T10:14:31.917Z,50.63
2019-03-20T10:15:32.215Z,50.12
2019-03-20T10:16:32.565Z,50.14
2019-03-20T10:17:32.928Z,50.55
2019-03-20T10:18:33.186Z,50.65
2019-03-20T10:19:33.498Z,50.45
2019-03-20T10:20:33.806Z,49.73
2019-03-20T10:21:34.134Z,50.55
2019-03-20T10:22:34.432Z,51.06
2019-03-20T10:23:34.779Z,51.29
2019-03-20T10:24:35.096Z,50.78
2019-03-20T10:25:43.884Z,50.78
2019-03-20T10:26:36.758Z,50.85
2019-03-20T10:27:36.033Z,51.47
2019-03-20T10:28:36.382Z,50.24
2019-03-20T10:29:36.682Z,50.75
2019-03-20T10:30:36.988Z,50.45
2019-03-20T10:31:37.347Z,50.24
2019-03-20T10:32:37.619Z,51.26
2019-03-20T10:33:37.960Z,51.78
2019-03-20T10:34:39.634Z,50.52
2019-03-20T10:35:38.571Z,49.91
2019-03-20T10:36:38.918Z,49.91
2019-03-20T10:37:39.185Z,50.52
2019-03-20T10:38:39.545Z,49.71
2019-03-20T10:39:40.078Z,50.22
2019-03-20T10:40:40.159Z,50.63
2019-03-20T10:41:40.508Z,50.22
2019-03-20T10:42:40.919Z,50.42
2019-03-20T10:43:41.089Z,49.99
2019-03-20T10:44:41.444Z,50.30
2019-03-20T10:45:41.826Z,50.20
2019-03-20T10:46:42.107Z,49.68
2019-03-20T10:47:47.031Z,49.58
2019-03-20T10:48:42.722Z,49.27
2019-03-20T10:49:43.001Z,50.20
2019-03-20T10:50:43.403Z,50.60
2019-03-20T10:51:43.706Z,50.20
2019-03-20T10:52:43.949Z,50.48
2019-03-20T10:53:44.279Z,50.07
2019-03-20T10:54:44.595Z,49.55
2019-03-20T10:55:44.896Z,49.35
2019-03-20T10:56:45.264Z,49.87
2019-03-20T10:57:45.539Z,49.25
2019-03-20T10:58:45.879Z,49.87
2019-03-20T10:59:46.172Z,49.84
2019-03-20T11:00:46.472Z,49.13
2019-03-20T11:01:46.835Z,48.82
2019-03-20T11:02:47.133Z,49.13
2019-03-20T11:03:47.443Z,49.43
2019-03-20T11:04:47.781Z,49.41
2019-03-20T11:05:48.083Z,48.69
2019-03-20T11:06:48.467Z,49.30
2019-03-20T11:07:48.738Z,49.41
2019-03-20T11:08:49.027Z,48.57
2019-03-20T11:09:49.357Z,48.57
2019-03-20T11:10:49.650Z,48.26
2019-03-20T11:11:50.007Z,48.24
2019-03-20T11:12:50.283Z,47.83
2019-03-20T11:13:50.620Z,47.63
2019-03-20T11:14:50.939Z,47.55
2019-03-20T11:15:51.378Z,47.55
2019-03-20T11:16:51.566Z,47.67
2019-03-20T11:17:51.859Z,47.96
2019-03-20T11:18:52.179Z,47.73
2019-03-20T11:19:52.514Z,47.12
2019-03-20T11:20:53.496Z,47.32
2019-03-20T11:21:53.139Z,46.59
2019-03-20T11:22:53.427Z,47.17
2019-03-20T11:23:53.842Z,45.75
2019-03-20T11:24:54.067Z,45.65
2019-03-20T11:25:54.364Z,46.36
2019-03-20T11:26:54.713Z,46.03
2019-03-20T11:27:54.993Z,48.18
2019-03-20T11:28:55.295Z,45.73
2019-03-20T11:29:55.639Z,45.32
2019-03-20T11:30:55.949Z,45.83
2019-03-20T11:31:56.300Z,46.77
2019-03-20T11:32:56.569Z,46.24
2019-03-20T11:33:56.853Z,46.03
2019-03-20T11:34:57.199Z,46.01
2019-03-20T11:35:57.498Z,45.71
2019-03-20T11:36:57.833Z,45.28
2019-03-20T11:37:58.144Z,45.06
2019-03-20T11:38:58.446Z,43.84
2019-03-20T11:39:58.795Z,44.65
2019-03-20T11:40:59.054Z,44.54
2019-03-20T11:41:59.389Z,44.45
2019-03-20T11:42:59.701Z,43.73
2019-03-20T11:44:00.014Z,44.85
2019-03-20T11:45:00.366Z,44.22
2019-03-20T11:46:00.618Z,45.44
2019-03-20T11:47:00.976Z,44.63
2019-03-20T11:48:01.304Z,44.32
2019-03-20T11:49:01.703Z,43.81
2019-03-20T11:50:01.954Z,43.61
2019-03-20T11:51:02.228Z,45.44
2019-03-20T11:52:02.575Z,44.12
2019-03-20T11:53:02.882Z,43.99
2019-03-20T11:54:03.189Z,43.69
2019-03-20T11:55:03.524Z,43.49
2019-03-20T11:56:03.825Z,43.79
2019-03-20T11:57:04.254Z,43.59
2019-03-20T11:58:04.463Z,44.08
2019-03-20T11:59:04.756Z,43.98
2019-03-20T12:00:05.091Z,42.57
2019-03-20T12:01:05.389Z,43.18
2019-03-20T12:02:05.685Z,43.49
2019-03-20T12:03:06.047Z,43.90
2019-03-20T12:04:06.353Z,43.29
2019-03-20T12:05:06.742Z,43.30
2019-03-20T12:06:06.969Z,43.79
2019-03-20T12:07:07.271Z,43.49
2019-03-20T12:08:07.629Z,43.30
2019-03-20T12:09:07.917Z,43.81
2019-03-20T12:10:08.246Z,44.12
2019-03-20T12:11:08.544Z,44.12
2019-03-20T12:12:08.860Z,44.12
2019-03-20T12:13:09.252Z,43.99
2019-03-20T12:14:09.475Z,43.59
2019-03-20T12:15:09.811Z,43.37
2019-03-20T12:16:10.110Z,43.67
2019-03-20T12:17:10.424Z,42.86
2019-03-20T12:18:10.990Z,43.16
2019-03-20T12:19:11.036Z,43.26
2019-03-20T12:20:11.383Z,43.85
2019-03-20T12:21:11.735Z,42.43
2019-03-20T12:22:12.036Z,41.84
2019-03-20T12:23:12.362Z,42.88
2019-03-20T12:24:12.645Z,43.38
2019-03-20T12:25:12.964Z,42.68
2019-03-20T12:26:13.275Z,42.59
2019-03-20T12:27:15.424Z,42.90
2019-03-20T12:28:14.286Z,43.43
2019-03-20T12:29:14.238Z,44.45
2019-03-20T12:30:14.675Z,43.63
2019-03-20T12:31:14.851Z,44.06
2019-03-20T12:32:15.167Z,44.46
2019-03-20T12:33:15.500Z,44.16
2019-03-20T12:34:15.794Z,44.06
2019-03-20T12:35:16.126Z,44.06
2019-03-20T12:36:16.469Z,43.75
2019-03-20T12:37:16.733Z,43.85
2019-03-20T12:38:17.201Z,43.96
2019-03-20T12:39:17.357Z,43.75
2019-03-20T12:40:17.685Z,44.97
2019-03-20T12:41:17.983Z,44.77
2019-03-20T12:42:18.308Z,44.65
2019-03-20T12:43:18.660Z,43.75
2019-03-20T12:44:18.955Z,44.59
2019-03-20T12:45:19.280Z,44.89
2019-03-20T12:46:19.616Z,44.69
2019-03-20T12:47:19.875Z,45.32
2019-03-20T12:48:20.220Z,45.50
2019-03-20T12:49:20.507Z,45.91
2019-03-20T12:50:20.842Z,43.67
2019-03-20T12:51:21.138Z,44.59
2019-03-20T12:52:21.438Z,43.77
2019-03-20T12:53:21.795Z,44.71
2019-03-20T12:54:22.197Z,45.71
2019-03-20T12:55:22.412Z,45.00
2019-03-20T12:56:22.708Z,45.07